Logo AVAMET
Benvolgut visitant, si us plau, ingressa Recuperar contrasenya
AVAMET paisatges

Pedreguer Patronat

Dades diàries. Acumulats / Últims 30 dies disponibles

Data Temperatura (°C) Humitat rel. (%) Pressió rel. (hPa) Vent (km/h) Precipitació
Mínima Mitjana Màxima Amplitud
tèrmica
Mínima Mitjana Màxima Mínima Mitjana Màxima Predom. Mitjana Ràfega
màxima
Total
(mm)
Índex-n
Mínima Mitjana Màxima Mínima Mitjana Màxima n
0 a 1
P0 max
mm 5'
Dades mensuals acumulades fins l'últim dia disponible
06/2020 17,2 17,6 18,0 22,8 28,3 28,5 28,7 11,5 37 70 91 1.011 1.014 1.015   2,6 30,6 0,0
Dades anuals acumulades fins l'últim dia disponible
2020 2,6 11,5 20,4 15,6 10,7 20,6 31,9 29,3 18 72 96 1.000 1.018 1.034   1,8 62,8 279,6
Últims 30 dies disponibles
02-06-2020 17,2     22,5     28,3 11,1 54 73 91 1.011 1.013 1.015 ENE 2,3 29,0 0,0
01-06-2020 18,0     23,0     28,7 10,7 37 67 85 1.013 1.014 1.015 ENE 2,9 30,6 0,0
31-05-2020 15,9     21,6     28,5 12,6 36 63 83 1.010 1.012 1.014 ESE 2,6 27,4 0,0
30-05-2020 15,1     21,4     26,9 11,8 44 64 86 1.012 1.014 1.016 ESE 3,9 37,0 0,0
29-05-2020 15,0     21,8     28,3 13,3 35 60 90 1.012 1.016 1.021 ENE 1,9 24,1 0,0
28-05-2020 18,4     21,6     25,7 7,3 59 75 87 1.020 1.023 1.025 NNW 2,1 19,3 0,0
27-05-2020 16,8     21,3     26,2 9,4 55 73 85 1.023 1.024 1.025 NNW 2,1 20,9 0,0
26-05-2020 17,6     21,4     25,5 7,9 60 73 82 1.023 1.024 1.025 NNW 1,8 17,7 0,0
25-05-2020 15,9     20,7     26,4 10,5 51 72 87 1.023 1.025 1.026 NNW 1,1 17,7 0,0
24-05-2020 18,4     22,1     25,8 7,4 57 74 88 1.025 1.026 1.027 NNW 1,4 16,1 0,0
23-05-2020 17,6     24,3     31,5 13,9 31 49 71 1.021 1.023 1.025 ESE 2,7 29,0 0,0
22-05-2020 17,6     24,3     31,5 13,9 37 59 85 1.019 1.021 1.023 ESE 3,2 33,8 0,0
21-05-2020 17,7     23,9     30,8 13,1 40 67 92 1.016 1.018 1.020 ESE 1,8 27,4 0,0
20-05-2020 16,9     24,1     31,0 14,1 32 57 78 1.013 1.014 1.016 SSW 1,4 17,7 0,0
19-05-2020 16,0     22,9     30,3 14,3 37 60 88 1.014 1.016 1.020 ENE 1,6 20,9 0,0
18-05-2020 14,0     20,6     27,6 13,6 43 68 88 1.017 1.019 1.021 ENE 1,1 22,5 0,0
17-05-2020 14,9     18,4     23,7 8,8 61 78 91 1.018 1.019 1.021 ENE 1,0 20,9 0,2
16-05-2020 14,1     16,9     20,4 6,3 70 83 92 1.013 1.015 1.019 SW 2,4 22,5 4,2
15-05-2020 13,0     17,5     22,1 9,1 55 73 86 1.009 1.011 1.014 NNW 1,0 16,1 0,0
14-05-2020 13,3     16,8     21,8 8,5 52 72 92 1.001 1.004 1.009 SW 2,3 30,6 8,8
13-05-2020 15,9     19,6     24,0 8,1 43 60 80 1.003 1.005 1.006 ESE 3,1 25,7 0,0
12-05-2020 17,0     20,2     24,3 7,3 47 66 85 1.005 1.007 1.010 SW 1,4 16,1 0,0
11-05-2020 17,5     22,3     28,0 10,5 35 50 61 1.006 1.007 1.010 SW 3,9 25,7 0,0
10-05-2020 14,4     19,9     26,3 11,9 34 66 90 1.003 1.005 1.008 SW 4,0 30,6 3,4
09-05-2020 17,3     20,7     26,4 9,1 61 77 87 1.007 1.010 1.015 NE 2,3 20,9 0,0
08-05-2020 18,1     20,1     23,6 5,5 66 81 89 1.013 1.015 1.017 NNW 2,7 27,4 0,0
07-05-2020 16,9     20,8     25,6 8,7 50 78 92 1.016 1.017 1.018 NNW 1,4 16,1 0,0
06-05-2020 16,6     21,5     27,6 11,0 45 73 89 1.013 1.015 1.017 NNW 1,1 17,7 0,0
05-05-2020 15,8     22,4     30,6 14,8 46 72 90 1.011 1.013 1.014 NE 0,6 16,1 0,0
04-05-2020 15,7     21,1     29,6 13,9 35 75 92 1.012 1.014 1.016 S 1,0 20,9 0,0
Últims 13 mesos disponibles
05/2020 13,0 16,4 20,4 21,4 20,4 27,2 31,9 18,9 48 67 83 1.004 1.016 1.026 NNW 2,1 37,0 16,6
04/2020 9,2 12,5 18,3 15,8 15,6 20,1 27,6 18,4 48 77 93 1.005 1.015 1.025 SW 2,0 29,0 55,0
03/2020 6,6 10,9 16,6 14,3 10,7 18,3 26,2 19,6 44 72 94 1.006 1.016 1.025 WSW 2,5 51,5 73,4
02/2020 6,2 9,8 13,8 14,6 14,0 20,4 26,7 20,5 39 72 89 1.013 1.024 1.032 ESE 1,3 29,0 6,6
01/2020 2,6 7,6 14,6 11,2 12,1 16,3 22,4 19,8 61 64 67 1.021 1.021 1.021 WSW 1,3 62,8 128,0
12/2019 7,3 10,4 17,4 13,7 13,1 18,3 24,3 17,0 SW 1,3 46,7 178,8
11/2019 6,2 11,9 21,3 15,4 15,1 19,6 27,1 20,9 SW 2,6 40,2 11,0
10/2019 9,8 15,7 19,6 19,8 16,4 24,8 31,7 21,9 SW 1,1 32,2 90,4
09/2019 13,9 19,5 23,0 23,3 22,9 27,7 34,2 20,3 ESE 1,4 51,5 168,0
08/2019 18,4 22,3 26,9 26,8 27,4 32,2 39,2 20,8 NNW 2,2 46,7 64,0
07/2019 20,8 22,6 27,7 27,6 30,3 33,4 40,3 19,5 ESE 2,6 41,8 0,4
06/2019 14,0 17,7 22,2 22,8 23,1 28,3 37,3 23,3 ESE 3,0 43,5 1,0
05/2019 9,3 14,1 21,0 18,9 19,4 24,1 30,8 21,5 ESE 2,5 40,2 9,8
Tots els anys disponibles
2019 2,2 14,2 27,7 18,5 11,7 23,5 40,3 38,1 SW 2,1 51,5 838,8
2018 5,7 11,7 18,4 15,3 11,8 20,2 28,6 22,9 SW 1,2 48,3 268,2
2017 0,3 15,0 26,9 19,6 8,0 24,7 37,3 37,0 2,2 64,4 583,6
2016 2,2 14,6 25,8 18,8 12,6 23,7 39,6 37,4 2,3 53,1 449,0
2015 1,6 14,4 21,1 18,7 22,4 24,2 41,4 39,8 2,5 61,2 493,2
2014 1,1 14,8 25,2 19,1 9,8 24,5 38,2 37,1 3,0 49,9 184,4
2013 1,3 13,8 16,9 18,2 18,7 23,5 37,0 35,7 3,3 53,1 626,0
2012 0,2 13,9 20,7 18,4 21,7 23,9 41,7 41,5 2,2 45,1 649,0
2011 -0,5 14,1 24,3 18,2 6,6 23,2 38,6 39,1 2,2 49,9 721,4
2010 -0,3 13,6 25,1 17,9 5,8 22,4 40,6 40,9 43 67 95 4,6 174,0 934,0
2009 0,7 14,5 26,0 18,5 5,3 23,1 38,0 37,3 4,9 77,2 1.203,4
2008 4,2 14,2 17,8 22,0 37,2 33,0 5,0 64,4 885,4
2007 3,1 14,4 24,4 18,0 9,4 22,1 36,4 33,3 4,8 74,0 1.421,4
2006 0,0 14,8 18,8 22,7 36,2 36,2 5,1 61,2 776,6
Temperatura (°C)
Humitat relativa (%)
Velocitat del vent i ràfega màxima (km/h)
Direcció del vent (°)
Pressió (hPa)
Precipitació (mm)
Nota sobre les dades: s'avisa a l'usuari de la provisionalitat i no oficialitat d'aquestes dades
Logo AVAMET blanc
Web allotjada a Sollutia
Llicència de Creative CommonsLa web d'AVAMET i els seus continguts estan subjectes a una llicència de
Reconeixement - No Comercial - Compartir igual
Últimes estacions: Biar - IES Biar (Soci), Xodos - la Vega (Soci), la Vall d'Alba - Centre (Ajuntament soci), Chera (Ajuntament soci) - - -